createdAt,value
2022-10-05T00:01:41.298Z,9.46
2022-10-05T00:04:12.043Z,9.47
2022-10-05T00:06:38.867Z,9.48
2022-10-05T00:09:13.320Z,9.48
2022-10-05T00:11:40.013Z,9.49
2022-10-05T00:14:27.771Z,9.50
2022-10-05T00:16:55.722Z,9.50
2022-10-05T00:19:28.626Z,9.50
2022-10-05T00:22:30.238Z,9.51
2022-10-05T00:24:58.884Z,9.53
2022-10-05T00:27:27.352Z,9.54
2022-10-05T00:29:54.695Z,9.55
2022-10-05T00:32:21.358Z,9.57
2022-10-05T00:34:48.044Z,9.57
2022-10-05T00:37:14.730Z,9.58
2022-10-05T00:39:41.547Z,9.60
2022-10-05T00:42:27.976Z,9.58
2022-10-05T00:44:55.425Z,9.58
2022-10-05T00:47:31.318Z,9.58
2022-10-05T00:50:17.988Z,9.58
2022-10-05T00:53:02.956Z,9.58
2022-10-05T00:55:44.990Z,9.58
2022-10-05T00:58:30.555Z,9.59
2022-10-05T01:01:09.585Z,9.61
2022-10-05T01:03:42.308Z,9.62
2022-10-05T01:06:31.597Z,9.63
2022-10-05T01:09:20.420Z,9.64
2022-10-05T01:12:03.057Z,9.65
2022-10-05T01:14:39.379Z,9.65
2022-10-05T01:17:10.988Z,9.64
2022-10-05T01:19:51.180Z,9.63
2022-10-05T01:22:27.190Z,9.63
2022-10-05T01:25:06.348Z,9.62
2022-10-05T01:27:54.876Z,9.62
2022-10-05T01:30:21.737Z,9.61
2022-10-05T01:33:00.091Z,9.61
2022-10-05T01:35:30.716Z,9.59
2022-10-05T01:38:22.855Z,9.58
2022-10-05T01:41:19.787Z,9.57
2022-10-05T01:43:51.129Z,9.57
2022-10-05T01:46:53.540Z,9.55
2022-10-05T01:49:35.301Z,9.54
2022-10-05T01:52:11.377Z,9.52
2022-10-05T01:54:50.217Z,9.51
2022-10-05T01:57:54.655Z,9.50
2022-10-05T02:00:21.524Z,9.47
2022-10-05T02:02:52.978Z,9.45
2022-10-05T02:05:21.523Z,9.44
2022-10-05T02:08:00.433Z,9.42
2022-10-05T02:10:48.484Z,9.41
2022-10-05T02:13:18.627Z,9.39
2022-10-05T02:15:48.197Z,9.36
2022-10-05T02:18:20.057Z,9.35
2022-10-05T02:20:46.790Z,9.34
2022-10-05T02:23:25.536Z,9.34
2022-10-05T02:25:52.789Z,9.32
2022-10-05T02:28:27.492Z,9.32
2022-10-05T02:31:05.113Z,9.30
2022-10-05T02:33:33.304Z,9.30
2022-10-05T02:36:16.625Z,9.29
2022-10-05T02:38:54.400Z,9.28
2022-10-05T02:42:00.442Z,9.27
2022-10-05T02:44:33.724Z,9.25
2022-10-05T02:47:12.755Z,9.25
2022-10-05T02:49:45.005Z,9.25
2022-10-05T02:52:19.048Z,9.24
2022-10-05T02:55:04.731Z,9.23
2022-10-05T02:57:40.351Z,9.23
2022-10-05T03:00:15.959Z,9.22
2022-10-05T03:03:09.643Z,9.21
2022-10-05T03:05:39.524Z,9.22
2022-10-05T03:08:29.681Z,9.22
2022-10-05T03:11:22.626Z,9.22
2022-10-05T03:14:09.611Z,9.22
2022-10-05T03:17:01.626Z,9.20
2022-10-05T03:19:51.229Z,9.20
2022-10-05T03:22:41.089Z,9.19
2022-10-05T03:25:26.124Z,9.18
2022-10-05T03:28:17.124Z,9.17
2022-10-05T03:31:20.972Z,9.15
2022-10-05T03:34:02.121Z,9.14
2022-10-05T03:37:07.462Z,9.14
2022-10-05T03:39:39.314Z,9.12
2022-10-05T03:42:24.943Z,9.12
2022-10-05T03:45:05.715Z,9.11
2022-10-05T03:47:51.110Z,9.12
2022-10-05T03:50:40.660Z,9.10
2022-10-05T03:53:23.464Z,9.09
2022-10-05T03:55:52.207Z,9.08
2022-10-05T03:58:31.731Z,9.09
2022-10-05T04:01:03.973Z,9.10
2022-10-05T04:03:43.393Z,9.09
2022-10-05T04:06:13.550Z,9.09
2022-10-05T04:08:50.763Z,9.07
2022-10-05T04:11:26.841Z,9.07
2022-10-05T04:14:16.050Z,9.06
2022-10-05T04:16:47.403Z,9.05
2022-10-05T04:19:19.194Z,9.04
2022-10-05T04:21:57.801Z,9.03
2022-10-05T04:24:28.820Z,9.01
2022-10-05T04:27:04.060Z,9.00
2022-10-05T04:29:32.775Z,8.99
2022-10-05T04:32:27.349Z,8.99
2022-10-05T04:35:03.260Z,8.98
2022-10-05T04:38:07.483Z,8.97
2022-10-05T04:40:41.693Z,8.96
2022-10-05T04:43:18.586Z,8.97
2022-10-05T04:46:07.312Z,8.96
2022-10-05T04:49:13.198Z,8.97
2022-10-05T04:51:51.005Z,8.98
2022-10-05T04:54:52.778Z,8.99
2022-10-05T04:57:38.465Z,9.01
2022-10-05T05:00:26.240Z,9.03
2022-10-05T05:03:20.293Z,9.05
2022-10-05T05:06:16.474Z,9.06
2022-10-05T05:08:58.078Z,9.07
2022-10-05T05:11:51.899Z,9.10
2022-10-05T05:14:38.588Z,9.11
2022-10-05T05:17:18.966Z,9.12
2022-10-05T05:20:20.666Z,9.16
2022-10-05T05:23:03.980Z,9.19
2022-10-05T05:26:05.598Z,9.24
2022-10-05T05:28:51.730Z,9.28
2022-10-05T05:31:38.266Z,9.32
2022-10-05T05:34:43.516Z,9.34
2022-10-05T05:37:19.048Z,9.38
2022-10-05T05:39:55.061Z,9.40
2022-10-05T05:42:45.285Z,9.42
2022-10-05T05:45:17.780Z,9.44
2022-10-05T05:47:52.039Z,9.46
2022-10-05T05:50:34.803Z,9.48
2022-10-05T05:53:24.352Z,9.52
2022-10-05T05:56:22.216Z,9.53
2022-10-05T05:58:52.681Z,9.54
2022-10-05T06:01:32.882Z,9.55
2022-10-05T06:04:03.842Z,9.57
2022-10-05T06:06:31.776Z,9.58
2022-10-05T06:09:01.447Z,9.60
2022-10-05T06:11:43.272Z,9.62
2022-10-05T06:14:16.386Z,9.63
2022-10-05T06:16:50.178Z,9.65
2022-10-05T06:19:18.612Z,9.66
2022-10-05T06:21:52.602Z,9.68
2022-10-05T06:24:36.666Z,9.73
2022-10-05T06:27:22.820Z,9.77
2022-10-05T06:29:54.528Z,9.81
2022-10-05T06:32:29.521Z,9.87
2022-10-05T06:35:10.880Z,9.92
2022-10-05T06:37:40.771Z,9.97
2022-10-05T06:40:11.582Z,9.99
2022-10-05T06:42:46.812Z,10.00
2022-10-05T06:45:47.062Z,10.02
2022-10-05T06:48:46.356Z,10.06
2022-10-05T06:51:47.738Z,10.11
2022-10-05T06:54:22.036Z,10.15
2022-10-05T06:57:12.525Z,10.19
2022-10-05T06:59:55.961Z,10.26
2022-10-05T07:02:30.971Z,10.31
2022-10-05T07:05:07.803Z,10.36
2022-10-05T07:07:52.707Z,10.41
2022-10-05T07:10:35.083Z,10.45
2022-10-05T07:13:09.472Z,10.51
2022-10-05T07:15:42.077Z,10.56
2022-10-05T07:18:18.983Z,10.60
2022-10-05T07:21:15.224Z,10.63
2022-10-05T07:23:44.921Z,10.67
2022-10-05T07:26:17.717Z,10.72
2022-10-05T07:28:48.272Z,10.79
2022-10-05T07:31:18.719Z,10.85
2022-10-05T07:33:48.640Z,10.90
2022-10-05T07:36:55.059Z,10.95
2022-10-05T07:40:00.067Z,10.97
2022-10-05T07:43:03.886Z,11.01
2022-10-05T07:46:14.750Z,11.07
2022-10-05T07:49:00.020Z,11.13
2022-10-05T07:51:34.753Z,11.19
2022-10-05T07:54:16.423Z,11.21
2022-10-05T07:56:45.910Z,11.24
2022-10-05T07:59:57.118Z,11.30
2022-10-05T08:03:57.177Z,11.46
2022-10-05T08:06:49.526Z,11.52
2022-10-05T08:09:30.550Z,11.55
2022-10-05T08:12:12.414Z,11.54
2022-10-05T08:14:51.264Z,11.53
2022-10-05T08:17:49.120Z,11.54
2022-10-05T08:20:18.854Z,11.54
2022-10-05T08:23:33.564Z,11.56
2022-10-05T08:26:22.716Z,11.58
2022-10-05T08:29:16.444Z,11.58
2022-10-05T08:31:45.874Z,11.53
2022-10-05T08:34:22.098Z,11.49
2022-10-05T08:37:05.099Z,11.50
2022-10-05T08:39:40.435Z,11.55
2022-10-05T08:42:44.699Z,11.66
2022-10-05T08:45:29.520Z,11.77
2022-10-05T08:48:17.463Z,11.84
2022-10-05T08:51:01.742Z,11.88
2022-10-05T08:53:42.366Z,11.90
2022-10-05T08:56:25.126Z,11.89
2022-10-05T08:59:15.996Z,11.88
2022-10-05T09:02:20.329Z,11.83
2022-10-05T09:05:11.624Z,11.81
2022-10-05T09:08:15.310Z,11.80
2022-10-05T09:10:53.442Z,11.79
2022-10-05T09:13:35.347Z,11.79
2022-10-05T09:16:23.905Z,11.80
2022-10-05T09:19:15.433Z,11.84
2022-10-05T09:22:00.809Z,11.84
2022-10-05T09:24:27.560Z,11.85
2022-10-05T09:27:00.316Z,11.84
2022-10-05T09:30:00.395Z,11.82
2022-10-05T09:32:39.951Z,11.83
2022-10-05T09:35:43.813Z,11.86
2022-10-05T09:38:31.736Z,11.91
2022-10-05T09:41:23.565Z,11.94
2022-10-05T09:44:13.053Z,11.94
2022-10-05T09:46:55.556Z,11.96
2022-10-05T09:49:28.680Z,11.99
2022-10-05T09:52:19.090Z,12.01
2022-10-05T09:55:10.839Z,12.02
2022-10-05T09:58:15.326Z,12.02
2022-10-05T10:01:09.633Z,12.03
2022-10-05T10:04:01.742Z,12.06
2022-10-05T10:06:52.714Z,12.09
2022-10-05T10:09:52.020Z,12.14
2022-10-05T10:12:37.427Z,12.18
2022-10-05T10:15:07.051Z,12.21
2022-10-05T10:17:52.449Z,12.26
2022-10-05T10:20:28.561Z,12.32
2022-10-05T10:23:10.551Z,12.36
2022-10-05T10:25:49.322Z,12.38
2022-10-05T10:28:26.308Z,12.44
2022-10-05T10:31:11.913Z,12.52
2022-10-05T10:33:44.255Z,12.60
2022-10-05T10:36:16.924Z,12.65
2022-10-05T10:39:00.166Z,12.70
2022-10-05T10:41:32.841Z,12.72
2022-10-05T10:44:03.013Z,12.74
2022-10-05T10:46:57.503Z,12.78
2022-10-05T10:49:46.081Z,12.80
2022-10-05T10:52:31.546Z,12.80
2022-10-05T10:55:23.101Z,12.81
2022-10-05T11:01:34.666Z,12.84
2022-10-05T11:04:13.516Z,12.87
2022-10-05T11:07:17.808Z,12.90
2022-10-05T11:10:12.337Z,12.93
2022-10-05T11:12:45.166Z,12.95
2022-10-05T11:15:37.464Z,12.95
2022-10-05T11:18:26.349Z,12.94
2022-10-05T11:21:04.794Z,12.92
2022-10-05T11:23:56.377Z,12.93
2022-10-05T11:26:56.599Z,12.95
2022-10-05T11:29:49.203Z,12.97
2022-10-05T11:32:27.670Z,12.96
2022-10-05T11:35:12.699Z,12.94
2022-10-05T11:38:04.211Z,12.93
2022-10-05T11:41:08.399Z,12.91
2022-10-05T11:44:03.134Z,12.88
2022-10-05T11:46:39.109Z,12.86
2022-10-05T11:49:15.692Z,12.85
2022-10-05T11:52:06.467Z,12.84
2022-10-05T11:55:09.350Z,12.84
2022-10-05T11:57:54.999Z,12.81
2022-10-05T12:00:30.646Z,12.80
2022-10-05T12:03:00.206Z,12.77
2022-10-05T12:05:36.487Z,12.75
2022-10-05T12:08:27.829Z,12.75
2022-10-05T12:11:08.712Z,12.72
2022-10-05T12:13:38.337Z,12.71
2022-10-05T12:16:26.922Z,12.71
2022-10-05T12:18:58.607Z,12.72
2022-10-05T12:22:03.759Z,12.72
2022-10-05T12:24:36.510Z,12.70
2022-10-05T12:27:16.035Z,12.68
2022-10-05T12:29:56.498Z,12.67
2022-10-05T12:32:56.891Z,12.67
2022-10-05T12:35:47.456Z,12.68
2022-10-05T12:38:25.548Z,12.68
2022-10-05T12:41:01.363Z,12.68
2022-10-05T12:43:31.140Z,12.68
2022-10-05T12:46:07.597Z,12.68
2022-10-05T12:48:49.336Z,12.69
2022-10-05T12:51:41.983Z,12.70
2022-10-05T12:54:14.827Z,12.72
2022-10-05T12:56:59.191Z,12.74
2022-10-05T12:59:44.147Z,12.76
2022-10-05T13:02:32.263Z,12.75
2022-10-05T13:05:11.054Z,12.72
2022-10-05T13:07:40.826Z,12.71
2022-10-05T13:10:28.223Z,12.70
2022-10-05T13:13:03.952Z,12.70
2022-10-05T13:15:56.692Z,12.71
2022-10-05T13:18:38.700Z,12.71
2022-10-05T13:21:20.643Z,12.71
2022-10-05T13:24:19.867Z,12.72
2022-10-05T13:26:49.663Z,12.72
2022-10-05T13:29:16.331Z,12.72
2022-10-05T13:31:50.317Z,12.73
2022-10-05T13:34:26.772Z,12.73
2022-10-05T13:37:02.786Z,12.74
2022-10-05T13:39:48.273Z,12.76
2022-10-05T13:42:18.304Z,12.77
2022-10-05T13:44:54.377Z,12.77
2022-10-05T13:47:23.919Z,12.78
2022-10-05T13:49:53.758Z,12.78
2022-10-05T13:53:06.094Z,12.79
2022-10-05T13:55:56.180Z,12.78
2022-10-05T13:58:50.368Z,12.78
2022-10-05T14:01:44.538Z,12.77
2022-10-05T14:04:19.844Z,12.74
2022-10-05T14:06:46.706Z,12.71
2022-10-05T14:09:27.281Z,12.69
2022-10-05T14:12:14.946Z,12.64
2022-10-05T14:14:51.230Z,12.62
2022-10-05T14:17:33.327Z,12.60
2022-10-05T14:20:01.044Z,12.59
2022-10-05T14:22:28.259Z,12.59
2022-10-05T14:24:56.819Z,12.60
2022-10-05T14:27:28.250Z,12.59
2022-10-05T14:29:56.737Z,12.60
2022-10-05T14:32:24.005Z,12.62
2022-10-05T14:35:05.124Z,12.63
2022-10-05T14:37:32.676Z,12.64
2022-10-05T14:40:03.385Z,12.65
2022-10-05T14:42:30.658Z,12.66
2022-10-05T14:45:01.501Z,12.66
2022-10-05T14:47:30.345Z,12.67
2022-10-05T14:50:21.356Z,12.66
2022-10-05T14:53:14.070Z,12.66
2022-10-05T14:55:44.472Z,12.64
2022-10-05T14:58:23.834Z,12.61
2022-10-05T15:01:03.868Z,12.59
2022-10-05T15:03:40.732Z,12.56
2022-10-05T15:06:12.663Z,12.54
2022-10-05T15:08:49.890Z,12.53
2022-10-05T15:11:25.631Z,12.51
2022-10-05T15:13:52.331Z,12.48
2022-10-05T15:16:19.798Z,12.45
2022-10-05T15:19:24.464Z,12.43
2022-10-05T15:22:18.736Z,12.39
2022-10-05T15:25:17.639Z,12.37
2022-10-05T15:28:01.024Z,12.35
2022-10-05T15:30:27.804Z,12.34
2022-10-05T15:33:39.237Z,12.32
2022-10-05T15:36:10.332Z,12.28
2022-10-05T15:38:39.892Z,12.25
2022-10-05T15:41:18.345Z,12.23
2022-10-05T15:43:50.430Z,12.21
2022-10-05T15:46:22.070Z,12.21
2022-10-05T15:49:08.427Z,12.20
2022-10-05T15:51:41.848Z,12.19
2022-10-05T15:54:42.198Z,12.17
2022-10-05T15:57:27.372Z,12.13
2022-10-05T15:59:58.549Z,12.10
2022-10-05T16:02:31.001Z,12.07
2022-10-05T16:05:57.292Z,12.03
2022-10-05T16:08:51.259Z,11.96
2022-10-05T16:11:32.196Z,11.90
2022-10-05T16:14:10.324Z,11.85
2022-10-05T16:16:49.349Z,11.80
2022-10-05T16:19:38.173Z,11.76
2022-10-05T16:22:43.553Z,11.71
2022-10-05T16:25:44.908Z,11.66
2022-10-05T16:28:15.507Z,11.60
2022-10-05T16:30:59.192Z,11.56
2022-10-05T16:33:54.389Z,11.53
2022-10-05T16:36:40.367Z,11.53
2022-10-05T16:39:24.194Z,11.52
2022-10-05T16:42:14.197Z,11.51
2022-10-05T16:45:06.859Z,11.51
2022-10-05T16:47:47.019Z,11.50
2022-10-05T16:50:32.331Z,11.49
2022-10-05T16:53:25.592Z,11.49
2022-10-05T16:55:54.523Z,11.48
2022-10-05T16:58:27.379Z,11.48
2022-10-05T17:01:08.788Z,11.48
2022-10-05T17:03:53.988Z,11.47
2022-10-05T17:06:46.519Z,11.46
2022-10-05T17:09:16.011Z,11.46
2022-10-05T17:11:50.056Z,11.44
2022-10-05T17:14:35.141Z,11.43
2022-10-05T17:17:20.706Z,11.41
2022-10-05T17:20:01.166Z,11.38
2022-10-05T17:22:36.449Z,11.37
2022-10-05T17:25:18.333Z,11.37
2022-10-05T17:28:15.164Z,11.36
2022-10-05T17:30:50.502Z,11.36
2022-10-05T17:33:29.087Z,11.33
2022-10-05T17:36:08.585Z,11.32
2022-10-05T17:38:35.244Z,11.32
2022-10-05T17:41:04.834Z,11.29
2022-10-05T17:43:32.254Z,11.27
2022-10-05T17:46:00.737Z,11.27
2022-10-05T17:48:49.309Z,11.28
2022-10-05T17:51:47.939Z,11.28
2022-10-05T17:54:40.414Z,11.29
2022-10-05T17:57:07.102Z,11.29
2022-10-05T17:59:39.274Z,11.29
2022-10-05T18:02:19.696Z,11.29
2022-10-05T18:05:14.529Z,11.30
2022-10-05T18:07:42.124Z,11.31
2022-10-05T18:10:11.834Z,11.31
2022-10-05T18:12:41.508Z,11.32
2022-10-05T18:15:08.143Z,11.33
2022-10-05T18:17:46.286Z,11.34
2022-10-05T18:20:28.646Z,11.36
2022-10-05T18:23:07.616Z,11.37
2022-10-05T18:25:43.432Z,11.37
2022-10-05T18:28:22.479Z,11.36
2022-10-05T18:31:22.086Z,11.36
2022-10-05T18:34:26.376Z,11.35
2022-10-05T18:37:16.243Z,11.33
2022-10-05T18:39:46.150Z,11.32
2022-10-05T18:42:39.668Z,11.31
2022-10-05T18:45:26.790Z,11.30
2022-10-05T18:47:53.434Z,11.30
2022-10-05T18:50:27.418Z,11.29
2022-10-05T18:53:06.256Z,11.27
2022-10-05T18:55:38.252Z,11.26
2022-10-05T18:58:41.414Z,11.25
2022-10-05T19:01:32.365Z,11.23
2022-10-05T19:04:04.605Z,11.22
2022-10-05T19:06:36.631Z,11.20
2022-10-05T19:09:17.365Z,11.19
2022-10-05T19:12:41.420Z,11.20
2022-10-05T19:15:20.398Z,11.20
2022-10-05T19:17:49.846Z,11.19
2022-10-05T19:20:18.468Z,11.19
2022-10-05T19:22:58.064Z,11.19
2022-10-05T19:25:28.300Z,11.20
2022-10-05T19:28:30.500Z,11.20
2022-10-05T19:31:12.913Z,11.21
2022-10-05T19:34:06.846Z,11.21
2022-10-05T19:36:40.298Z,11.22
2022-10-05T19:39:34.494Z,11.22
2022-10-05T19:42:12.391Z,11.22
2022-10-05T19:44:59.861Z,11.22
2022-10-05T19:47:42.684Z,11.22
2022-10-05T19:50:20.950Z,11.22
2022-10-05T19:52:50.338Z,11.22
2022-10-05T19:55:26.441Z,11.23
2022-10-05T19:57:54.714Z,11.23
2022-10-05T20:00:21.516Z,11.23
2022-10-05T20:02:50.603Z,11.21
2022-10-05T20:05:17.465Z,11.20
2022-10-05T20:07:44.170Z,11.20
2022-10-05T20:10:22.907Z,11.17
2022-10-05T20:12:51.092Z,11.15
2022-10-05T20:15:40.969Z,11.12
2022-10-05T20:20:38.438Z,11.06
2022-10-05T20:23:30.473Z,11.02
2022-10-05T20:26:15.925Z,10.99
2022-10-05T20:28:44.599Z,10.97
2022-10-05T20:31:12.473Z,10.94
2022-10-05T20:33:40.237Z,10.93
2022-10-05T20:36:08.660Z,10.92
2022-10-05T20:38:40.627Z,10.93
2022-10-05T20:41:07.823Z,10.94
2022-10-05T20:43:35.802Z,10.94
2022-10-05T20:46:02.579Z,10.94
2022-10-05T20:48:29.683Z,10.96
2022-10-05T20:50:56.645Z,10.96
2022-10-05T20:53:23.356Z,10.98
2022-10-05T20:55:50.027Z,10.97
2022-10-05T20:58:17.979Z,10.98
2022-10-05T21:01:03.325Z,10.99
2022-10-05T21:03:30.254Z,11.00
2022-10-05T21:05:56.962Z,11.01
2022-10-05T21:08:25.267Z,11.02
2022-10-05T21:10:52.152Z,11.03
2022-10-05T21:13:18.757Z,11.04
2022-10-05T21:15:45.461Z,11.04
2022-10-05T21:18:12.078Z,11.04
2022-10-05T21:20:38.893Z,11.04
2022-10-05T21:23:05.496Z,11.04
2022-10-05T21:25:33.490Z,11.04
2022-10-05T21:28:00.269Z,11.03
2022-10-05T21:30:27.021Z,11.02
2022-10-05T21:35:21.511Z,11.01
2022-10-05T21:37:48.244Z,11.00
2022-10-05T21:40:16.249Z,10.98
2022-10-05T21:42:43.124Z,10.93
2022-10-05T21:45:10.403Z,10.93
2022-10-05T21:47:37.277Z,10.93
2022-10-05T21:50:05.287Z,10.92
2022-10-05T21:52:32.823Z,10.93
2022-10-05T21:54:59.604Z,10.92
2022-10-05T21:57:26.484Z,10.93
2022-10-05T21:59:53.211Z,10.92
2022-10-05T22:02:19.955Z,10.91
2022-10-05T22:04:46.687Z,10.92
2022-10-05T22:07:20.271Z,10.91
2022-10-05T22:09:50.644Z,10.91
2022-10-05T22:12:17.741Z,10.93
2022-10-05T22:14:44.547Z,10.94
2022-10-05T22:17:14.917Z,10.97
2022-10-05T22:19:41.830Z,10.99
2022-10-05T22:22:11.795Z,11.00
2022-10-05T22:24:38.801Z,11.02
2022-10-05T22:27:05.497Z,11.03
2022-10-05T22:29:32.364Z,11.04
2022-10-05T22:31:59.078Z,11.05
2022-10-05T22:34:25.888Z,11.07
2022-10-05T22:36:53.036Z,11.09
2022-10-05T22:39:19.894Z,11.11
2022-10-05T22:41:46.925Z,11.13
2022-10-05T22:44:13.595Z,11.15
2022-10-05T22:46:40.204Z,11.16
2022-10-05T22:49:06.897Z,11.17
2022-10-05T22:51:33.504Z,11.19
2022-10-05T22:54:00.176Z,11.20
2022-10-05T22:56:26.800Z,11.20
2022-10-05T22:58:53.498Z,11.21
2022-10-05T23:01:20.205Z,11.21
2022-10-05T23:03:46.964Z,11.22
2022-10-05T23:06:20.148Z,11.22
2022-10-05T23:08:47.065Z,11.22
2022-10-05T23:11:15.760Z,11.23
2022-10-05T23:13:42.465Z,11.23
2022-10-05T23:16:13.065Z,11.25
2022-10-05T23:18:39.928Z,11.26
2022-10-05T23:21:09.755Z,11.28
2022-10-05T23:23:37.480Z,11.29
2022-10-05T23:26:04.946Z,11.30
2022-10-05T23:28:32.103Z,11.32
2022-10-05T23:31:00.252Z,11.34
2022-10-05T23:33:27.695Z,11.35
2022-10-05T23:36:01.733Z,11.36
2022-10-05T23:38:28.741Z,11.38
2022-10-05T23:40:56.279Z,11.39
2022-10-05T23:43:22.996Z,11.39
2022-10-05T23:45:49.643Z,11.41
2022-10-05T23:48:16.441Z,11.42
2022-10-05T23:50:45.333Z,11.41
2022-10-05T23:53:12.079Z,11.40
2022-10-05T23:55:38.673Z,11.41
2022-10-05T23:58:06.118Z,11.41
